Terminal Aerodrome Forecast
Issued by NWS

Home | Current Version | Previous Version | Text Only | Print | Product List | Glossary On
Versions: 1 2 3 4 5 6 7 8 9 10 11 12
000
FTUS42 TJSJ 061730
TAFJSJ
TAF
TJSJ 061730Z 0618/0718 07015G22KT P6SM FEW025 SCT050
     FM062330 07009KT P6SM FEW030
     FM071330 08018G25KT P6SM FEW030 FEW050=

USA.gov is the U.S. government's official web portal to all federal, state and local government web resources and services.